Time;durP1;ratioP1;P1;durP2;ratioP2;P2;SDS_P1;SDS_P2;PMS_P1;PMS_P2;Temp;Humidity;BMP_temperature;BMP_pressure;BME280_temperature;BME280_humidity;BME280_pressure;Samples;Min_cycle;Max_cycle;Signal;HPM_P1;HPM_P2
2022/09/01 00:00:07;;;;;;;4.53;2.45;;;14.60;99.90;;;;;;5137271;27;20073;-76
2022/09/01 00:02:33;;;;;;;2.58;2.00;;;14.50;99.90;;;;;;5119879;27;20059;-76
2022/09/01 00:04:59;;;;;;;3.85;2.00;;;14.50;99.90;;;;;;5119794;27;20410;-75
2022/09/01 00:07:28;;;;;;;2.92;1.80;;;14.40;99.90;;;;;;5121629;27;20479;-79
2022/09/01 00:09:54;;;;;;;2.60;2.10;;;14.40;99.90;;;;;;5122278;27;20418;-77
2022/09/01 00:12:21;;;;;;;2.97;2.17;;;14.40;99.90;;;;;;5121909;27;20607;-75
2022/09/01 00:14:48;;;;;;;3.22;1.88;;;14.40;99.90;;;;;;5136278;27;20069;-76
2022/09/01 00:17:14;;;;;;;3.38;1.98;;;14.30;99.90;;;;;;5133051;27;20050;-76
2022/09/01 00:19:40;;;;;;;2.60;1.55;;;14.30;99.90;;;;;;5106623;27;20146;-76
2022/09/01 00:22:06;;;;;;;4.70;1.80;;;14.50;99.90;;;;;;5123928;27;20276;-78
2022/09/01 00:24:32;;;;;;;2.33;2.03;;;14.30;99.90;;;;;;5134925;27;20039;-74
2022/09/01 00:26:58;;;;;;;1.88;1.40;;;14.30;99.90;;;;;;5127274;27;20497;-79
2022/09/01 00:29:24;;;;;;;2.45;1.25;;;14.30;99.90;;;;;;5131953;27;20416;-78
2022/09/01 00:31:51;;;;;;;2.03;1.52;;;14.30;99.90;;;;;;5137646;27;20046;-75
2022/09/01 00:34:17;;;;;;;3.63;1.50;;;14.30;99.90;;;;;;5134071;27;20138;-77
2022/09/01 00:36:43;;;;;;;2.42;1.15;;;14.30;99.90;;;;;;5136202;27;20043;-77
2022/09/01 00:39:09;;;;;;;3.42;1.52;;;14.20;99.90;;;;;;5119703;27;20062;-76
2022/09/01 00:41:37;;;;;;;3.15;1.30;;;14.20;99.90;;;;;;5127006;27;20146;-74
2022/09/01 00:44:07;;;;;;;1.40;1.30;;;14.20;99.90;;;;;;5127455;27;20116;-77
2022/09/01 00:46:36;;;;;;;1.48;1.27;;;14.20;99.90;;;;;;5129132;27;20055;-75
2022/09/01 00:49:28;;;;;;;1.92;1.50;;;14.20;99.90;;;;;;5131856;27;20131;-79
2022/09/01 00:51:58;;;;;;;1.45;1.35;;;14.10;99.90;;;;;;5095152;27;20527;-79
2022/09/01 00:54:27;;;;;;;1.63;1.27;;;14.10;99.90;;;;;;5133934;27;20081;-75
2022/09/01 00:56:55;;;;;;;1.80;1.38;;;14.10;99.90;;;;;;5120120;27;20046;-77
2022/09/01 00:59:22;;;;;;;1.15;1.08;;;14.10;99.90;;;;;;5120651;27;20047;-76
2022/09/01 01:01:48;;;;;;;1.40;1.27;;;14.10;99.90;;;;;;5136150;27;20179;-78
2022/09/01 01:04:14;;;;;;;1.35;1.25;;;14.10;99.90;;;;;;5139174;27;20053;-77
2022/09/01 01:06:48;;;;;;;1.50;1.40;;;14.10;99.90;;;;;;5129943;27;20042;-79
2022/09/01 01:09:18;;;;;;;1.50;1.30;;;14.10;99.90;;;;;;5130820;27;20050;-77
2022/09/01 01:11:46;;;;;;;1.48;1.20;;;14.10;99.90;;;;;;5127760;27;20058;-78
2022/09/01 01:14:15;;;;;;;2.47;1.50;;;14.00;99.90;;;;;;5134666;27;20043;-74
2022/09/01 01:16:44;;;;;;;3.55;1.42;;;14.00;99.90;;;;;;5132506;27;20113;-76
2022/09/01 01:25:02;;;;;;;1.20;1.10;;;14.00;99.90;;;;;;5127033;27;20051;-77
2022/09/01 01:27:34;;;;;;;1.05;1.05;;;13.90;99.90;;;;;;5125737;27;20090;-76
2022/09/01 01:30:08;;;;;;;1.43;1.20;;;13.90;99.90;;;;;;5128714;27;20046;-74
2022/09/01 01:32:34;;;;;;;1.20;1.10;;;13.80;99.90;;;;;;5127287;27;21110;-78
2022/09/01 01:35:04;;;;;;;1.15;1.00;;;13.80;99.90;;;;;;5125802;27;20039;-75
2022/09/01 01:37:33;;;;;;;0.90;0.90;;;13.80;99.90;;;;;;5125045;27;20133;-74
2022/09/01 01:39:59;;;;;;;3.85;1.70;;;13.70;99.90;;;;;;5135129;27;20074;-75
2022/09/01 01:42:25;;;;;;;1.30;1.20;;;13.60;99.90;;;;;;5131274;27;20232;-78
2022/09/01 01:44:51;;;;;;;2.35;1.15;;;13.60;99.90;;;;;;5117476;27;20444;-74
2022/09/01 01:47:19;;;;;;;1.20;1.10;;;13.60;99.90;;;;;;5125228;27;20629;-78
2022/09/01 01:49:44;;;;;;;3.08;1.33;;;13.50;99.90;;;;;;5133489;27;20051;-78
2022/09/01 01:52:15;;;;;;;1.25;1.17;;;13.50;99.90;;;;;;5123576;27;20423;-75
2022/09/01 01:54:42;;;;;;;1.13;1.00;;;13.50;99.90;;;;;;5128415;27;20049;-76
2022/09/01 01:57:08;;;;;;;2.33;1.10;;;13.50;99.90;;;;;;5136449;27;20082;-77
2022/09/01 01:59:34;;;;;;;1.55;1.30;;;13.50;99.90;;;;;;5132068;27;20355;-75
2022/09/01 02:02:07;;;;;;;1.75;1.05;;;13.50;99.90;;;;;;5113827;27;21093;-76
2022/09/01 02:04:33;;;;;;;1.80;1.23;;;13.50;99.90;;;;;;5132527;27;20047;-74
2022/09/01 02:06:59;;;;;;;1.30;1.17;;;13.50;99.90;;;;;;5129525;27;20817;-77
2022/09/01 02:09:24;;;;;;;1.52;1.13;;;13.50;99.90;;;;;;5125301;27;20051;-78
2022/09/01 02:11:54;;;;;;;1.35;1.25;;;13.50;99.90;;;;;;5119493;27;20123;-77
2022/09/01 02:14:20;;;;;;;1.60;1.45;;;13.50;99.90;;;;;;5129925;27;20051;-74
2022/09/01 02:16:46;;;;;;;1.00;1.00;;;13.40;99.90;;;;;;5120096;27;20653;-74
2022/09/01 02:19:12;;;;;;;1.40;1.30;;;13.40;99.90;;;;;;5139376;27;20445;-75
2022/09/01 02:21:43;;;;;;;3.50;1.40;;;13.30;99.90;;;;;;5129182;27;20566;-73
2022/09/01 02:24:10;;;;;;;1.60;1.40;;;13.30;99.90;;;;;;5128597;27;20799;-76
2022/09/01 02:26:44;;;;;;;0.95;0.95;;;13.30;99.90;;;;;;5134353;27;20051;-76
2022/09/01 02:29:20;;;;;;;0.85;0.82;;;13.20;99.90;;;;;;5122734;27;20483;-74
2022/09/01 02:31:48;;;;;;;1.50;1.40;;;13.20;99.90;;;;;;5128478;27;20061;-76
2022/09/01 02:34:15;;;;;;;1.23;1.10;;;13.20;99.90;;;;;;5124056;27;20047;-75
2022/09/01 02:36:47;;;;;;;3.20;1.52;;;13.20;99.90;;;;;;5121966;27;20415;-77
2022/09/01 02:39:14;;;;;;;1.50;1.40;;;13.20;99.90;;;;;;5141105;27;20073;-77
2022/09/01 02:41:40;;;;;;;1.50;1.40;;;13.30;99.90;;;;;;5130600;27;20885;-76
2022/09/01 02:44:13;;;;;;;1.48;1.38;;;13.30;99.90;;;;;;5131300;27;20944;-73
2022/09/01 02:46:44;;;;;;;1.75;1.60;;;13.40;99.90;;;;;;5135277;27;20051;-75
2022/09/01 02:49:18;;;;;;;2.97;1.65;;;13.50;99.90;;;;;;5133149;27;20038;-76
2022/09/01 02:51:47;;;;;;;1.42;1.33;;;13.50;99.90;;;;;;5125122;27;20042;-74
2022/09/01 02:54:18;;;;;;;1.58;1.30;;;13.50;99.90;;;;;;5141349;27;20082;-76
2022/09/01 02:56:47;;;;;;;2.00;1.40;;;13.50;99.90;;;;;;5137253;27;20673;-72
2022/09/01 02:59:14;;;;;;;1.60;1.40;;;13.50;99.90;;;;;;5132983;27;20053;-77
2022/09/01 03:01:41;;;;;;;1.60;1.50;;;13.50;99.90;;;;;;5132924;27;20042;-75
2022/09/01 03:04:10;;;;;;;1.33;1.23;;;13.60;99.90;;;;;;5133278;27;20074;-78
2022/09/01 03:06:37;;;;;;;7.97;1.38;;;13.60;99.90;;;;;;5135702;27;20267;-75
2022/09/01 03:09:07;;;;;;;2.08;1.30;;;13.60;99.90;;;;;;5130366;27;20046;-76
2022/09/01 03:11:36;;;;;;;1.85;1.75;;;13.60;99.90;;;;;;5136346;27;20434;-75
2022/09/01 03:14:03;;;;;;;1.85;1.60;;;13.60;99.90;;;;;;5127336;27;21272;-78
2022/09/01 03:16:29;;;;;;;2.15;1.40;;;13.50;99.90;;;;;;5129214;27;20038;-76
2022/09/01 03:18:56;;;;;;;3.47;1.90;;;13.60;99.90;;;;;;5137221;27;20077;-75
2022/09/01 03:21:22;;;;;;;2.17;1.60;;;13.60;99.90;;;;;;5135184;27;20085;-74
2022/09/01 03:23:49;;;;;;;1.90;1.60;;;13.60;99.90;;;;;;5131750;27;20057;-76
2022/09/01 03:26:17;;;;;;;3.25;1.60;;;13.80;99.90;;;;;;5134360;27;20043;-75
2022/09/01 03:28:43;;;;;;;1.50;1.40;;;13.50;99.90;;;;;;5131214;27;20093;-78
2022/09/01 03:31:09;;;;;;;3.90;1.70;;;13.50;99.90;;;;;;5137901;27;20872;-76
2022/09/01 03:33:37;;;;;;;2.42;1.88;;;13.50;99.90;;;;;;5133255;27;20784;-75
2022/09/01 03:36:04;;;;;;;1.40;1.30;;;13.50;99.90;;;;;;5122025;27;20058;-75
2022/09/01 03:38:32;;;;;;;2.13;1.50;;;13.40;99.90;;;;;;5131571;27;20035;-76
2022/09/01 03:41:02;;;;;;;1.90;1.73;;;13.40;99.90;;;;;;5141443;27;20046;-78
2022/09/01 03:43:30;;;;;;;1.70;1.60;;;13.40;99.90;;;;;;5101477;27;20058;-77
2022/09/01 03:45:59;;;;;;;1.83;1.70;;;13.30;99.90;;;;;;5119375;27;20502;-76
2022/09/01 03:48:27;;;;;;;1.67;1.58;;;13.30;99.90;;;;;;5120595;27;20039;-77
2022/09/01 03:50:54;;;;;;;1.70;1.60;;;13.30;99.90;;;;;;5105016;27;20051;-76
2022/09/01 03:53:23;;;;;;;2.05;1.50;;;13.20;99.90;;;;;;5128015;27;20085;-75
2022/09/01 03:55:49;;;;;;;1.60;1.50;;;13.20;99.90;;;;;;5133700;27;20127;-77
2022/09/01 03:58:18;;;;;;;2.83;1.60;;;13.20;99.90;;;;;;5122201;27;20218;-78
2022/09/01 04:00:48;;;;;;;1.58;1.33;;;13.20;99.90;;;;;;5125568;27;20114;-75
2022/09/01 04:03:20;;;;;;;1.25;1.23;;;13.10;99.90;;;;;;5126955;27;20051;-76
2022/09/01 04:05:48;;;;;;;3.10;1.70;;;13.10;99.90;;;;;;5138918;27;20146;-75
2022/09/01 04:08:14;;;;;;;2.22;1.80;;;13.10;99.90;;;;;;5134817;27;20043;-77
2022/09/01 04:11:08;;;;;;;1.95;1.60;;;13.00;99.90;;;;;;5131267;27;20432;-77
2022/09/01 04:13:36;;;;;;;1.73;1.63;;;13.00;99.90;;;;;;5109706;27;20059;-77
2022/09/01 04:18:03;;;;;;;1.60;1.50;;;12.90;99.90;;;;;;5141326;27;20046;-76
2022/09/01 04:18:55;;;;;;;2.10;1.90;;;12.90;99.90;;;;;;5137241;27;20128;-76
2022/09/01 04:21:21;;;;;;;1.52;1.42;;;12.90;99.90;;;;;;5129963;27;20172;-77
2022/09/01 04:23:47;;;;;;;2.35;1.80;;;12.90;99.90;;;;;;5129780;27;20795;-78
2022/09/01 04:26:14;;;;;;;2.42;1.75;;;12.90;99.90;;;;;;5109579;27;20665;-77
2022/09/01 04:28:45;;;;;;;3.08;1.83;;;12.80;99.90;;;;;;5129660;27;20069;-79
2022/09/01 04:31:17;;;;;;;2.92;1.60;;;12.90;99.90;;;;;;5127359;27;20054;-75
2022/09/01 04:33:46;;;;;;;2.55;1.63;;;12.80;99.90;;;;;;5124629;27;20084;-79
2022/09/01 04:36:21;;;;;;;2.70;1.73;;;12.80;99.90;;;;;;5122914;27;20189;-75
2022/09/01 04:38:53;;;;;;;2.33;2.10;;;12.80;99.90;;;;;;5127603;27;20490;-78
2022/09/01 04:41:26;;;;;;;2.30;2.10;;;12.80;99.90;;;;;;5117393;27;20505;-73
2022/09/01 04:43:56;;;;;;;2.83;2.13;;;12.70;99.90;;;;;;5123117;27;20209;-74
2022/09/01 04:46:27;;;;;;;3.25;2.17;;;12.70;99.90;;;;;;5125979;27;20050;-77
2022/09/01 04:48:53;;;;;;;4.82;2.63;;;12.60;99.90;;;;;;5121480;27;20122;-77
2022/09/01 04:51:19;;;;;;;3.90;2.35;;;12.60;99.90;;;;;;5135313;27;20042;-78
2022/09/01 04:53:47;;;;;;;4.60;2.55;;;12.60;99.90;;;;;;5139569;27;20918;-76
2022/09/01 04:56:19;;;;;;;2.00;1.90;;;12.60;99.90;;;;;;5132492;27;20142;-75
2022/09/01 04:58:49;;;;;;;2.17;1.98;;;12.60;99.90;;;;;;5129296;27;20119;-78
2022/09/01 05:01:24;;;;;;;2.20;1.98;;;12.60;99.90;;;;;;5108459;27;20046;-75
2022/09/01 05:03:58;;;;;;;2.15;1.80;;;12.60;99.90;;;;;;5139042;27;20038;-79
2022/09/01 05:06:24;;;;;;;2.47;2.17;;;12.60;99.90;;;;;;5132067;27;20058;-76
2022/09/01 05:08:50;;;;;;;2.30;2.10;;;12.60;99.90;;;;;;5138690;27;20799;-77
2022/09/01 05:11:17;;;;;;;2.50;2.30;;;12.60;99.90;;;;;;5124097;27;20054;-77
2022/09/01 05:13:45;;;;;;;3.25;2.05;;;12.60;99.90;;;;;;5124781;27;20062;-77
2022/09/01 05:16:13;;;;;;;3.50;2.30;;;12.70;99.90;;;;;;5118498;27;20050;-77
2022/09/01 05:18:47;;;;;;;5.45;2.15;;;12.70;99.90;;;;;;5121775;27;20039;-76
2022/09/01 05:21:16;;;;;;;3.50;2.25;;;12.70;99.90;;;;;;5129247;27;20125;-77
2022/09/01 05:23:43;;;;;;;2.60;2.40;;;12.70;99.90;;;;;;5131502;27;20054;-80
2022/09/01 05:26:16;;;;;;;2.40;2.20;;;12.80;99.90;;;;;;5085653;27;20047;-75
2022/09/01 05:28:54;;;;;;;2.20;2.00;;;12.80;99.90;;;;;;5099324;27;20063;-77
2022/09/01 05:31:22;;;;;;;3.28;2.70;;;12.80;99.90;;;;;;5115895;27;20562;-76
2022/09/01 05:33:49;;;;;;;2.45;2.15;;;12.80;99.90;;;;;;5129449;27;20062;-77
2022/09/01 05:36:22;;;;;;;2.63;2.42;;;12.80;99.90;;;;;;5124612;27;20046;-78
2022/09/01 05:38:50;;;;;;;4.93;2.80;;;12.90;99.90;;;;;;5123185;27;20049;-76
2022/09/01 05:41:18;;;;;;;5.68;3.75;;;12.90;99.90;;;;;;5128927;27;20059;-74
2022/09/01 05:43:47;;;;;;;5.85;2.70;;;12.90;99.90;;;;;;5111455;27;20125;-77
2022/09/01 05:46:19;;;;;;;4.03;2.55;;;12.90;99.90;;;;;;5119474;27;20124;-80
2022/09/01 05:48:48;;;;;;;5.65;2.42;;;12.90;99.90;;;;;;5128670;27;20538;-81
2022/09/01 05:51:16;;;;;;;2.83;2.60;;;13.00;99.90;;;;;;5100103;27;20103;-75
2022/09/01 05:53:43;;;;;;;2.60;2.40;;;13.00;99.90;;;;;;5131714;27;20889;-77
2022/09/01 05:56:12;;;;;;;3.15;2.35;;;13.10;99.90;;;;;;5131174;27;20043;-77
2022/09/01 05:58:39;;;;;;;3.33;2.75;;;13.20;99.90;;;;;;5124615;27;20134;-77
2022/09/01 06:01:06;;;;;;;4.18;3.35;;;13.30;99.90;;;;;;5136199;27;20070;-75
2022/09/01 06:03:32;;;;;;;3.15;2.85;;;13.30;99.90;;;;;;5130358;27;20042;-74
2022/09/01 06:06:06;;;;;;;3.20;2.95;;;13.40;99.90;;;;;;5137172;27;20038;-75
2022/09/01 06:08:32;;;;;;;3.42;2.85;;;13.40;99.90;;;;;;5123141;27;20035;-73
2022/09/01 06:10:58;;;;;;;2.60;2.40;;;13.40;99.90;;;;;;5136531;27;20162;-75
2022/09/01 06:13:23;;;;;;;3.17;2.30;;;13.50;99.90;;;;;;5133330;27;20498;-75
2022/09/01 06:15:52;;;;;;;3.20;2.75;;;13.50;99.90;;;;;;5115452;27;20398;-77
2022/09/01 06:18:20;;;;;;;2.85;2.50;;;13.60;99.90;;;;;;5135414;27;20039;-76
2022/09/01 06:20:48;;;;;;;6.55;2.80;;;13.60;99.90;;;;;;5135606;27;20279;-72
2022/09/01 06:23:16;;;;;;;3.05;2.83;;;13.60;99.90;;;;;;5112309;27;20050;-75
2022/09/01 06:25:45;;;;;;;2.50;2.30;;;13.80;99.90;;;;;;5132311;27;20061;-72
2022/09/01 06:28:13;;;;;;;2.72;2.53;;;13.90;99.90;;;;;;5132594;27;20043;-73
2022/09/01 06:30:39;;;;;;;3.00;2.60;;;14.20;99.90;;;;;;5130083;27;20125;-76
2022/09/01 06:33:09;;;;;;;3.33;2.92;;;14.50;99.90;;;;;;5103066;27;20043;-75
2022/09/01 06:35:36;;;;;;;2.78;2.55;;;14.60;99.90;;;;;;5132499;27;20557;-75
2022/09/01 06:38:03;;;;;;;4.50;2.78;;;14.80;99.90;;;;;;5126354;27;20043;-77
2022/09/01 06:40:29;;;;;;;4.18;2.60;;;14.90;99.90;;;;;;5128743;27;20888;-74
2022/09/01 06:42:55;;;;;;;3.75;2.60;;;15.00;99.90;;;;;;5132114;27;20043;-71
2022/09/01 06:45:23;;;;;;;5.57;2.28;;;15.10;99.90;;;;;;5111194;27;20129;-73
2022/09/01 06:47:51;;;;;;;2.22;2.03;;;15.30;99.90;;;;;;5132183;27;20034;-74
2022/09/01 06:50:20;;;;;;;4.93;2.53;;;15.50;99.90;;;;;;5132155;27;20112;-76
2022/09/01 06:52:48;;;;;;;3.78;2.90;;;15.50;99.90;;;;;;5128491;27;20927;-75
2022/09/01 06:55:15;;;;;;;4.40;2.90;;;15.50;99.90;;;;;;5130834;27;20051;-75
2022/09/01 06:57:47;;;;;;;3.70;2.92;;;15.70;99.90;;;;;;5131878;27;20042;-75
2022/09/01 07:00:16;;;;;;;3.20;2.67;;;15.90;99.90;;;;;;5128540;27;20050;-77
2022/09/01 07:02:52;;;;;;;4.40;2.58;;;16.10;99.90;;;;;;5133820;27;20047;-77
2022/09/01 07:05:18;;;;;;;3.90;2.65;;;16.10;99.90;;;;;;5133423;27;20038;-76
2022/09/01 07:07:50;;;;;;;2.72;2.45;;;16.10;99.90;;;;;;5133899;27;20130;-74
2022/09/01 07:10:21;;;;;;;5.25;2.78;;;16.10;99.90;;;;;;5136689;27;20038;-77
2022/09/01 07:12:48;;;;;;;3.08;2.25;;;16.30;99.90;;;;;;5135979;27;20054;-76
2022/09/01 07:15:16;;;;;;;4.28;2.10;;;16.50;99.90;;;;;;5138109;27;20840;-77
2022/09/01 07:17:47;;;;;;;3.05;2.03;;;17.10;99.90;;;;;;5137366;27;20458;-76
2022/09/01 07:20:14;;;;;;;3.17;2.15;;;18.50;99.90;;;;;;5133802;27;20071;-77
2022/09/01 07:22:40;;;;;;;2.38;1.73;;;20.20;99.90;;;;;;5136105;27;20244;-76
2022/09/01 07:25:06;;;;;;;2.40;2.08;;;21.40;99.90;;;;;;5137995;27;20448;-74
2022/09/01 07:27:32;;;;;;;4.15;1.88;;;22.50;99.10;;;;;;5134706;27;20836;-77
2022/09/01 07:29:59;;;;;;;3.08;2.38;;;23.30;97.00;;;;;;5119125;27;20054;-78
2022/09/01 07:32:25;;;;;;;2.38;1.90;;;23.50;96.00;;;;;;5111805;27;20050;-79
2022/09/01 07:34:51;;;;;;;3.05;2.25;;;24.10;95.50;;;;;;5135173;27;20039;-75
2022/09/01 07:37:17;;;;;;;4.85;1.90;;;24.20;94.60;;;;;;5114623;27;20142;-76
2022/09/01 07:39:46;;;;;;;2.97;2.40;;;24.80;93.90;;;;;;5133377;27;20153;-76
2022/09/01 07:42:11;;;;;;;3.85;1.83;;;25.10;92.80;;;;;;5136317;27;20050;-77
2022/09/01 07:44:37;;;;;;;3.25;2.08;;;25.70;92.30;;;;;;5117160;27;20054;-76
2022/09/01 07:47:08;;;;;;;3.38;2.05;;;25.90;91.10;;;;;;5133153;27;20146;-77
2022/09/01 07:49:36;;;;;;;4.78;2.47;;;26.20;90.50;;;;;;5128254;27;20043;-79
2022/09/01 07:52:06;;;;;;;1.70;1.55;;;26.80;90.30;;;;;;5136720;27;20046;-79
2022/09/01 07:54:33;;;;;;;2.35;1.52;;;27.30;89.40;;;;;;5134104;27;20054;-76
2022/09/01 07:57:00;;;;;;;2.13;1.70;;;27.40;88.80;;;;;;5130771;27;20418;-78
2022/09/01 07:59:26;;;;;;;1.65;1.25;;;27.60;87.80;;;;;;5132662;27;20250;-76
2022/09/01 08:01:52;;;;;;;2.17;1.60;;;27.70;86.80;;;;;;5132167;27;20035;-77
2022/09/01 08:04:21;;;;;;;2.80;1.45;;;27.60;84.90;;;;;;5135124;27;20061;-79
2022/09/01 08:06:47;;;;;;;2.42;2.00;;;27.10;84.20;;;;;;5118549;27;21228;-79
2022/09/01 08:09:13;;;;;;;2.13;1.75;;;27.20;85.30;;;;;;5139397;27;20070;-79
2022/09/01 08:11:39;;;;;;;1.92;1.50;;;27.30;84.40;;;;;;5138491;27;20532;-79
2022/09/01 08:14:05;;;;;;;2.35;1.33;;;27.50;83.70;;;;;;5137492;27;20050;-81
2022/09/01 08:16:31;;;;;;;2.75;1.90;;;27.60;82.90;;;;;;5120792;27;20057;-77
2022/09/01 08:18:57;;;;;;;2.60;1.73;;;27.20;83.60;;;;;;5138700;27;20046;-79
2022/09/01 08:21:24;;;;;;;1.77;1.50;;;26.50;83.80;;;;;;5139862;27;20119;-78
2022/09/01 08:23:51;;;;;;;3.90;1.58;;;26.70;83.90;;;;;;5122331;27;20051;-79
2022/09/01 08:26:21;;;;;;;3.40;2.00;;;27.00;83.30;;;;;;5121663;27;20055;-79
2022/09/01 08:28:47;;;;;;;2.78;1.80;;;27.60;81.20;;;;;;5103372;27;20223;-78
2022/09/01 08:31:16;;;;;;;4.90;2.10;;;28.00;81.80;;;;;;5131961;27;20049;-79
2022/09/01 08:33:44;;;;;;;3.75;1.75;;;27.60;81.00;;;;;;5114438;27;20083;-75
2022/09/01 08:36:12;;;;;;;4.63;1.88;;;27.90;81.70;;;;;;5134041;27;20046;-80
2022/09/01 08:38:39;;;;;;;3.25;1.65;;;28.40;80.60;;;;;;5126952;27;20494;-75
2022/09/01 08:41:17;;;;;;;3.92;1.63;;;28.90;79.00;;;;;;5132828;27;20780;-75
2022/09/01 08:44:30;;;;;;;3.05;1.85;;;29.20;76.90;;;;;;5121397;27;20116;-78
2022/09/01 08:47:02;;;;;;;;;;;29.30;74.60;;;;;;5036914;28;20052;-78
2022/09/01 08:49:28;;;;;;;4.10;1.90;;;29.00;74.20;;;;;;5129433;27;19930;-82
2022/09/01 08:52:14;;;;;;;5.18;1.33;;;29.70;78.20;;;;;;5132326;27;20047;-78
2022/09/01 08:54:54;;;;;;;2.63;1.67;;;29.80;73.80;;;;;;5125105;27;20122;-79
2022/09/01 08:57:26;;;;;;;2.88;1.70;;;29.90;75.60;;;;;;5110448;27;20046;-77
2022/09/01 08:59:52;;;;;;;4.43;1.50;;;29.50;74.90;;;;;;5132230;27;20427;-76
2022/09/01 09:02:30;;;;;;;2.92;1.35;;;29.70;76.30;;;;;;5133256;27;20142;-80
2022/09/01 09:05:05;;;;;;;2.80;1.35;;;29.70;75.20;;;;;;5133838;27;20474;-76
2022/09/01 09:07:56;;;;;;;2.45;1.52;;;30.10;73.80;;;;;;5130503;27;20042;-77
2022/09/01 09:10:36;;;;;;;2.67;1.60;;;30.00;72.50;;;;;;5133336;27;20912;-78
2022/09/01 09:13:31;;;;;;;3.47;1.45;;;30.00;73.60;;;;;;5130020;27;20043;-80
2022/09/01 09:16:20;;;;;;;1.40;1.20;;;29.00;72.10;;;;;;5101217;27;20510;-77
2022/09/01 09:18:50;;;;;;;3.28;1.30;;;29.10;72.40;;;;;;5127142;27;20035;-80
2022/09/01 09:21:34;;;;;;;1.48;1.10;;;29.20;72.20;;;;;;5124286;27;20051;-80
2022/09/01 09:24:10;;;;;;;1.25;0.98;;;29.50;71.20;;;;;;5120770;27;20046;-77
2022/09/01 09:26:36;;;;;;;1.02;1.00;;;29.90;72.10;;;;;;5125644;27;20052;-79
2022/09/01 09:29:01;;;;;;;0.73;0.70;;;29.80;71.10;;;;;;5125639;27;20046;-79
2022/09/01 09:31:42;;;;;;;1.10;0.68;;;29.70;70.70;;;;;;5130844;27;20046;-80
2022/09/01 09:34:35;;;;;;;1.70;1.00;;;29.60;68.80;;;;;;5125730;27;20133;-76
2022/09/01 09:37:18;;;;;;;1.17;0.93;;;29.80;69.20;;;;;;5115711;27;20074;-78
2022/09/01 09:39:44;;;;;;;2.15;1.00;;;30.20;69.70;;;;;;5119088;27;20047;-79
2022/09/01 09:42:13;;;;;;;2.85;0.98;;;30.30;69.30;;;;;;5125484;27;20959;-78
2022/09/01 09:44:51;;;;;;;1.80;0.68;;;30.50;68.70;;;;;;5124697;27;20031;-76
2022/09/01 09:47:36;;;;;;;4.90;1.10;;;30.50;67.30;;;;;;5130196;27;20053;-80
2022/09/01 09:50:31;;;;;;;1.27;0.90;;;30.10;66.70;;;;;;5125375;27;20094;-80
2022/09/01 09:53:16;;;;;;;1.55;0.75;;;30.20;67.10;;;;;;5125824;27;20421;-82
2022/09/01 09:56:03;;;;;;;0.85;0.70;;;29.90;66.00;;;;;;5122655;27;20049;-81
2022/09/01 09:58:36;;;;;;;2.90;1.27;;;29.30;65.20;;;;;;5130504;27;20065;-79
2022/09/01 10:01:14;;;;;;;2.25;0.80;;;29.30;67.40;;;;;;5132556;27;20049;-81
2022/09/01 10:03:52;;;;;;;1.52;0.82;;;29.20;66.00;;;;;;5132250;27;20043;-80
2022/09/01 10:06:33;;;;;;;2.50;1.05;;;29.00;65.60;;;;;;5134408;27;20070;-80
2022/09/01 10:09:02;;;;;;;0.90;0.75;;;29.00;65.30;;;;;;5110921;27;20046;-76
2022/09/01 10:11:43;;;;;;;1.52;0.70;;;29.50;66.90;;;;;;5135237;27;20050;-79
2022/09/01 10:14:16;;;;;;;1.73;0.70;;;29.30;65.50;;;;;;5131933;27;20111;-77
2022/09/01 10:16:42;;;;;;;;;;;29.60;66.60;;;;;;5133346;27;20135;-77
2022/09/01 10:19:12;;;;;;;2.78;0.90;;;29.60;66.40;;;;;;5133012;27;19930;-80
2022/09/01 10:21:40;;;;;;;1.33;1.00;;;29.50;64.60;;;;;;5123294;27;20046;-81
2022/09/01 10:24:31;;;;;;;1.23;0.68;;;29.70;65.50;;;;;;5130584;27;20043;-77
2022/09/01 10:27:01;;;;;;;1.45;1.00;;;29.20;65.60;;;;;;5131641;27;20256;-77
2022/09/01 10:29:31;;;;;;;4.95;1.38;;;29.00;64.70;;;;;;5131810;27;20063;-79
2022/09/01 10:31:59;;;;;;;0.98;0.50;;;29.70;64.10;;;;;;5134161;27;20055;-79
2022/09/01 10:34:31;;;;;;;2.90;0.85;;;29.70;64.10;;;;;;5136296;27;20090;-80
2022/09/01 10:36:58;;;;;;;3.50;0.80;;;28.50;63.10;;;;;;5130934;27;20050;-78
2022/09/01 10:39:23;;;;;;;2.10;0.80;;;28.00;63.80;;;;;;5139428;27;20046;-78
2022/09/01 10:42:07;;;;;;;2.85;0.77;;;27.80;64.20;;;;;;5137518;27;20042;-79
2022/09/01 10:44:37;;;;;;;2.03;0.75;;;27.20;63.50;;;;;;5137300;27;20057;-74
2022/09/01 10:47:32;;;;;;;0.75;0.63;;;26.50;64.00;;;;;;5133882;27;20118;-78
2022/09/01 10:50:21;;;;;;;1.13;0.57;;;26.50;64.70;;;;;;5131049;27;20035;-78
2022/09/01 10:52:46;;;;;;;1.27;0.65;;;27.10;63.30;;;;;;5136578;27;20047;-76
2022/09/01 10:55:33;;;;;;;0.85;0.85;;;26.70;63.40;;;;;;5135555;27;20943;-75
2022/09/01 10:58:34;;;;;;;1.30;1.00;;;26.30;63.50;;;;;;5134218;27;20043;-80
2022/09/01 11:01:00;;;;;;;0.80;0.80;;;26.10;65.50;;;;;;5135981;27;20103;-78
2022/09/01 11:03:47;;;;;;;1.52;0.82;;;25.60;63.30;;;;;;5132422;27;20165;-79
2022/09/01 11:06:40;;;;;;;0.95;0.68;;;25.40;63.80;;;;;;5101068;27;20055;-79
2022/09/01 11:09:18;;;;;;;9.07;1.13;;;25.00;63.90;;;;;;5132432;27;20050;-75
2022/09/01 11:12:11;;;;;;;0.80;0.80;;;24.80;63.90;;;;;;5137545;27;20091;-79
2022/09/01 11:14:51;;;;;;;1.67;0.90;;;24.80;64.60;;;;;;5126837;27;20506;-81
2022/09/01 11:17:23;;;;;;;1.42;0.60;;;24.90;65.30;;;;;;5112059;27;20111;-81
2022/09/01 11:19:59;;;;;;;2.47;0.82;;;25.00;64.50;;;;;;5138084;27;20054;-78
2022/09/01 11:22:42;;;;;;;1.67;0.80;;;25.10;64.00;;;;;;5128618;27;20051;-78
2022/09/01 11:25:33;;;;;;;1.95;0.95;;;25.10;63.70;;;;;;5134560;27;20049;-80
2022/09/01 11:28:01;;;;;;;2.10;0.85;;;25.20;63.70;;;;;;5137070;27;20138;-78
2022/09/01 11:30:35;;;;;;;1.48;0.90;;;25.10;63.90;;;;;;5132942;27;20058;-74
2022/09/01 11:33:19;;;;;;;1.85;0.90;;;25.10;63.90;;;;;;5111745;27;20051;-77
2022/09/01 11:35:45;;;;;;;1.55;0.82;;;25.00;63.80;;;;;;5113993;27;20049;-77
2022/09/01 11:38:15;;;;;;;1.52;0.70;;;25.10;63.80;;;;;;5111188;27;20829;-75
2022/09/01 11:40:41;;;;;;;4.65;0.80;;;25.10;63.50;;;;;;5132184;27;20091;-79
2022/09/01 11:43:13;;;;;;;0.60;0.60;;;25.10;63.50;;;;;;5134249;27;20131;-80
2022/09/01 11:46:14;;;;;;;3.40;0.73;;;25.10;63.40;;;;;;5135571;27;20050;-79
2022/09/01 11:48:45;;;;;;;1.33;0.77;;;25.00;63.70;;;;;;5123886;27;20043;-85
2022/09/01 11:51:11;;;;;;;1.00;0.80;;;24.80;63.40;;;;;;5133239;27;20339;-76
2022/09/01 11:53:37;;;;;;;1.30;0.70;;;24.70;63.80;;;;;;5115197;27;21263;-81
2022/09/01 11:56:24;;;;;;;1.80;0.70;;;24.60;64.10;;;;;;5137184;27;20050;-83
2022/09/01 11:58:49;;;;;;;0.95;0.93;;;24.60;64.10;;;;;;5126226;27;20044;-81
2022/09/01 12:01:29;;;;;;;0.85;0.63;;;24.50;64.30;;;;;;5127181;27;20058;-76
2022/09/01 12:03:55;;;;;;;1.30;0.80;;;24.50;64.30;;;;;;5111374;27;20342;-80
2022/09/01 12:06:26;;;;;;;1.75;0.90;;;24.40;64.20;;;;;;5137465;27;20500;-78
2022/09/01 12:08:58;;;;;;;2.15;0.80;;;24.40;64.60;;;;;;5122326;27;20194;-73
2022/09/01 12:11:33;;;;;;;0.80;0.45;;;24.40;64.20;;;;;;5132742;27;20046;-77
2022/09/01 12:14:02;;;;;;;1.40;0.90;;;24.50;64.00;;;;;;5124676;27;20043;-76
2022/09/01 12:16:30;;;;;;;1.00;0.63;;;24.50;64.00;;;;;;5132875;27;20057;-77
2022/09/01 12:18:58;;;;;;;1.17;0.70;;;24.60;64.10;;;;;;5133824;27;20073;-76
2022/09/01 12:21:42;;;;;;;1.58;0.70;;;24.50;64.40;;;;;;5134694;27;20136;-78
2022/09/01 12:24:16;;;;;;;2.33;1.00;;;24.70;64.50;;;;;;5129740;27;20051;-77
2022/09/01 12:26:43;;;;;;;3.30;0.80;;;24.50;64.60;;;;;;5132726;27;20494;-74
2022/09/01 12:29:12;;;;;;;1.48;0.70;;;24.60;64.40;;;;;;5128750;27;20054;-78
2022/09/01 12:31:44;;;;;;;1.33;0.90;;;24.70;64.50;;;;;;5124070;27;20049;-77
2022/09/01 12:34:42;;;;;;;1.33;0.77;;;24.50;65.10;;;;;;5130052;27;20121;-77
2022/09/01 12:37:10;;;;;;;3.17;0.90;;;24.20;66.10;;;;;;5130478;27;20054;-83
2022/09/01 12:39:42;;;;;;;1.90;0.85;;;24.40;66.30;;;;;;5130202;27;20078;-80
2022/09/01 12:42:20;;;;;;;0.65;0.55;;;24.10;65.70;;;;;;5123229;27;20043;-76
2022/09/01 12:44:56;;;;;;;1.90;0.93;;;24.00;65.30;;;;;;5114707;27;20107;-78
2022/09/01 12:47:34;;;;;;;1.38;0.98;;;24.00;65.60;;;;;;5128821;27;20055;-78
2022/09/01 12:50:01;;;;;;;0.60;0.60;;;24.10;65.40;;;;;;5107945;27;20047;-78
2022/09/01 12:52:27;;;;;;;2.00;0.70;;;24.10;65.60;;;;;;5107321;27;20047;-78
2022/09/01 12:55:02;;;;;;;3.60;0.85;;;24.10;66.00;;;;;;5132641;27;20042;-76
2022/09/01 12:57:41;;;;;;;0.80;0.70;;;24.00;66.90;;;;;;5123619;27;20150;-81
2022/09/01 13:00:09;;;;;;;0.57;0.57;;;24.10;66.60;;;;;;5130063;27;20956;-76
2022/09/01 13:02:40;;;;;;;1.90;0.95;;;24.20;65.70;;;;;;5135774;27;20533;-78
2022/09/01 13:05:27;;;;;;;3.30;0.90;;;24.20;65.10;;;;;;5129177;27;20062;-79
2022/09/01 13:07:55;;;;;;;3.97;0.85;;;24.00;65.40;;;;;;5127468;27;20660;-77
2022/09/01 13:10:23;;;;;;;0.60;0.60;;;23.80;65.60;;;;;;5130625;27;20046;-80
2022/09/01 13:12:50;;;;;;;0.52;0.52;;;23.80;65.80;;;;;;5104931;27;20070;-78